Time;durP1;ratioP1;P1;durP2;ratioP2;P2;SDS_P1;SDS_P2;PMS_P1;PMS_P2;Temp;Humidity;BMP_temperature;BMP_pressure;BME280_temperature;BME280_humidity;BME280_pressure;Samples;Min_cycle;Max_cycle;Signal;HPM_P1;HPM_P2
2022/12/30 00:00:20;;;;;;;12.27;3.33;;;7.70;99.90;;;;;;5016150;28;20168;-80
2022/12/30 00:02:45;;;;;;;19.05;2.55;;;7.70;99.90;;;;;;5015375;28;20192;-80
2022/12/30 00:05:11;;;;;;;10.45;2.30;;;7.60;99.90;;;;;;5027724;28;20684;-81
2022/12/30 00:07:39;;;;;;;9.77;2.80;;;7.60;99.90;;;;;;5039144;28;20222;-81
2022/12/30 00:10:05;;;;;;;15.45;3.00;;;7.60;99.90;;;;;;5021344;28;20173;-80
2022/12/30 00:35:06;;;;;;;13.85;1.95;;;7.70;99.90;;;;;;5016092;28;20641;-81
2022/12/30 00:37:31;;;;;;;28.92;2.58;;;7.70;99.90;;;;;;5014346;28;20263;-82
2022/12/30 00:39:57;;;;;;;10.10;2.60;;;7.70;99.90;;;;;;5030726;28;20259;-82
2022/12/30 00:45:22;;;;;;;10.57;2.03;;;7.70;99.90;;;;;;5003694;28;20271;-81
2022/12/30 00:47:48;;;;;;;15.10;2.78;;;7.70;99.90;;;;;;5014486;28;20168;-84
2022/12/30 00:58:27;;;;;;;10.60;2.20;;;7.80;99.90;;;;;;5015269;28;20578;-81
2022/12/30 01:00:53;;;;;;;9.95;2.38;;;7.90;99.90;;;;;;5030114;28;20176;-81
2022/12/30 01:03:19;;;;;;;7.60;2.58;;;7.90;99.90;;;;;;5013524;28;20287;-80
2022/12/30 01:05:44;;;;;;;10.43;2.45;;;7.80;99.90;;;;;;5013788;28;20259;-81
2022/12/30 01:08:10;;;;;;;11.98;2.58;;;7.70;99.90;;;;;;5014853;28;20161;-81
2022/12/30 01:10:38;;;;;;;18.42;2.55;;;7.70;99.90;;;;;;5013643;28;20646;-80
2022/12/30 01:13:04;;;;;;;15.23;2.50;;;7.60;99.90;;;;;;5030170;28;20216;-80
2022/12/30 01:15:30;;;;;;;6.95;1.92;;;7.70;99.90;;;;;;5015044;28;20192;-81
2022/12/30 01:17:55;;;;;;;7.45;2.13;;;7.80;99.90;;;;;;5014480;28;20171;-81
2022/12/30 01:20:21;;;;;;;21.50;3.03;;;7.70;99.90;;;;;;5013489;28;20172;-81
2022/12/30 01:22:47;;;;;;;11.35;2.03;;;7.60;99.90;;;;;;5014757;28;20234;-82
2022/12/30 01:25:12;;;;;;;8.93;2.30;;;7.70;99.90;;;;;;5014574;28;20592;-81
2022/12/30 01:27:38;;;;;;;10.85;2.10;;;7.80;99.90;;;;;;5029840;28;20168;-81
2022/12/30 01:30:04;;;;;;;14.73;2.08;;;7.70;99.90;;;;;;5014459;28;20295;-81
2022/12/30 01:32:30;;;;;;;12.68;2.45;;;7.60;99.90;;;;;;5013356;28;20188;-82
2022/12/30 01:34:57;;;;;;;14.05;2.10;;;7.60;99.90;;;;;;5014585;28;20179;-81
2022/12/30 01:37:23;;;;;;;13.30;2.60;;;7.60;99.90;;;;;;5029431;28;20681;-81
2022/12/30 01:39:49;;;;;;;11.63;1.80;;;7.70;99.90;;;;;;5013886;28;20641;-81
2022/12/30 01:42:21;;;;;;;9.05;2.13;;;7.60;99.90;;;;;;5014048;28;20195;-81
2022/12/30 01:45:08;;;;;;;21.75;2.78;;;7.60;99.90;;;;;;5029237;28;20274;-80
2022/12/30 01:47:37;;;;;;;22.23;3.05;;;7.50;99.90;;;;;;5013321;28;20176;-81
2022/12/30 01:50:09;;;;;;;16.30;2.13;;;7.50;99.90;;;;;;5012880;28;20645;-82
2022/12/30 01:52:37;;;;;;;17.50;2.42;;;7.60;99.90;;;;;;5012764;28;20533;-81
2022/12/30 01:55:06;;;;;;;15.70;2.67;;;7.70;99.90;;;;;;5028915;28;20189;-81
2022/12/30 01:57:32;;;;;;;21.13;3.17;;;7.70;99.90;;;;;;5013901;28;20169;-83
2022/12/30 02:00:00;;;;;;;15.43;2.63;;;7.60;99.90;;;;;;5012705;28;20172;-82
2022/12/30 02:02:26;;;;;;;14.52;3.45;;;7.70;99.90;;;;;;5013947;28;20716;-82
2022/12/30 02:04:52;;;;;;;22.00;3.47;;;7.80;99.90;;;;;;5013377;28;20231;-81
2022/12/30 02:07:28;;;;;;;13.18;3.28;;;7.70;99.90;;;;;;5012561;28;20160;-81
2022/12/30 02:09:56;;;;;;;11.85;2.72;;;7.60;99.90;;;;;;5012184;28;20227;-82
2022/12/30 02:12:22;;;;;;;22.83;2.83;;;7.70;99.90;;;;;;5012431;28;20173;-82
2022/12/30 02:14:48;;;;;;;15.43;2.00;;;7.60;99.90;;;;;;5029111;28;20172;-82
2022/12/30 02:17:33;;;;;;;15.80;2.10;;;7.60;99.90;;;;;;5013863;28;20203;-82
2022/12/30 02:20:07;;;;;;;16.60;2.67;;;7.60;99.90;;;;;;5012623;28;20643;-81
2022/12/30 02:22:40;;;;;;;13.60;2.92;;;7.50;99.90;;;;;;5013805;28;20195;-81
2022/12/30 02:25:28;;;;;;;10.70;2.20;;;7.40;99.90;;;;;;5013612;28;20233;-81
2022/12/30 02:28:08;;;;;;;15.88;2.33;;;7.40;99.90;;;;;;5013461;28;20516;-80
2022/12/30 02:30:58;;;;;;;15.50;2.45;;;7.50;99.90;;;;;;5011906;28;20196;-81
2022/12/30 02:33:50;;;;;;;14.65;2.35;;;7.50;99.90;;;;;;5013574;28;20188;-82
2022/12/30 02:36:26;;;;;;;11.30;2.53;;;7.40;99.90;;;;;;5012121;28;20637;-81
2022/12/30 02:39:19;;;;;;;22.27;3.38;;;7.30;99.90;;;;;;5028330;28;20160;-81
2022/12/30 02:45:05;;;;;;;10.38;3.28;;;7.50;99.90;;;;;;5013416;28;20222;-81
2022/12/30 02:47:38;;;;;;;21.70;3.08;;;7.40;99.90;;;;;;5013002;28;20680;-81
2022/12/30 02:53:18;;;;;;;21.27;3.53;;;7.50;99.90;;;;;;4992026;28;20204;-81
2022/12/30 02:55:44;;;;;;;12.10;2.45;;;7.30;99.90;;;;;;5012999;28;20172;-83
2022/12/30 02:58:10;;;;;;;11.50;3.35;;;7.20;99.90;;;;;;5028336;28;20182;-81
2022/12/30 03:04:05;;;;;;;12.85;2.80;;;7.40;99.90;;;;;;5012887;28;20278;-80
2022/12/30 03:07:02;;;;;;;15.55;2.80;;;7.30;99.90;;;;;;5011406;28;20172;-80
2022/12/30 03:11:12;;;;;;;21.60;2.85;;;7.30;99.90;;;;;;5011648;28;20226;-81
2022/12/30 03:12:43;;;;;;;17.55;3.53;;;7.30;99.90;;;;;;5012634;28;20235;-82
2022/12/30 03:15:19;;;;;;;19.73;2.58;;;7.10;99.90;;;;;;5012685;28;20678;-81
2022/12/30 03:17:47;;;;;;;8.60;3.22;;;7.20;99.90;;;;;;5012599;28;20179;-80
2022/12/30 03:20:17;;;;;;;16.85;2.72;;;7.10;99.90;;;;;;5027632;28;20172;-81
2022/12/30 03:28:18;;;;;;;12.05;2.28;;;7.30;99.90;;;;;;5012558;28;20239;-80
2022/12/30 03:30:57;;;;;;;7.35;2.22;;;7.30;99.90;;;;;;5012575;28;20183;-81
2022/12/30 03:33:23;;;;;;;12.55;2.30;;;7.30;99.90;;;;;;5027865;28;20203;-81
2022/12/30 03:36:18;;;;;;;15.77;2.33;;;7.40;99.90;;;;;;5028078;28;20649;-81
2022/12/30 03:38:52;;;;;;;10.15;2.13;;;7.40;99.90;;;;;;5027438;28;20184;-81
2022/12/30 03:41:20;;;;;;;21.52;2.75;;;7.50;99.90;;;;;;5012818;28;20247;-81
2022/12/30 03:43:47;;;;;;;11.23;2.00;;;7.40;99.90;;;;;;5016030;28;20218;-82
2022/12/30 03:46:12;;;;;;;12.48;2.85;;;7.30;99.90;;;;;;5031289;28;20195;-81
2022/12/30 03:48:38;;;;;;;15.48;2.78;;;7.30;99.90;;;;;;5016099;28;20188;-81
2022/12/30 03:51:04;;;;;;;16.50;2.20;;;7.20;99.90;;;;;;5031559;28;20230;-81
2022/12/30 03:53:29;;;;;;;15.27;3.17;;;7.20;99.90;;;;;;5015068;28;20192;-82
2022/12/30 03:55:55;;;;;;;15.73;2.92;;;7.30;99.90;;;;;;5016463;28;20199;-81
2022/12/30 03:58:20;;;;;;;16.30;4.18;;;7.40;99.90;;;;;;5016562;28;20168;-80
2022/12/30 04:00:46;;;;;;;24.15;3.85;;;7.50;99.90;;;;;;5016550;28;20633;-81
2022/12/30 04:03:12;;;;;;;13.93;2.88;;;7.50;99.90;;;;;;5016279;28;20267;-81
2022/12/30 04:05:38;;;;;;;10.45;2.38;;;7.50;99.90;;;;;;5028143;28;20248;-86
2022/12/30 04:08:05;;;;;;;11.10;3.00;;;7.60;99.90;;;;;;5011505;28;20169;-82
2022/12/30 04:10:30;;;;;;;15.45;3.60;;;7.40;99.90;;;;;;5011298;28;20173;-81
2022/12/30 04:12:56;;;;;;;28.48;3.20;;;7.30;99.90;;;;;;4995182;28;20602;-82
2022/12/30 04:15:21;;;;;;;19.20;3.72;;;7.30;99.90;;;;;;4996369;28;20212;-81
2022/12/30 04:17:47;;;;;;;20.92;2.42;;;7.40;99.90;;;;;;4995262;28;20247;-82
2022/12/30 04:20:13;;;;;;;12.68;3.00;;;7.30;99.90;;;;;;4994972;28;20165;-82
2022/12/30 04:22:38;;;;;;;4.80;2.72;;;7.20;99.90;;;;;;4995756;28;20260;-83
2022/12/30 04:25:04;;;;;;;17.45;2.70;;;7.30;99.90;;;;;;4995649;28;20208;-80
2022/12/30 04:27:30;;;;;;;11.15;2.58;;;7.10;99.90;;;;;;4995864;28;20536;-80
2022/12/30 04:29:55;;;;;;;11.55;2.67;;;7.00;99.90;;;;;;4995744;28;20189;-80
2022/12/30 04:32:21;;;;;;;26.45;4.00;;;7.10;99.90;;;;;;4996026;28;20170;-80
2022/12/30 04:34:46;;;;;;;10.95;3.00;;;7.20;99.90;;;;;;4994921;28;20225;-81
2022/12/30 04:37:12;;;;;;;11.07;2.60;;;7.20;99.90;;;;;;4994893;28;20180;-81
2022/12/30 04:39:38;;;;;;;8.70;2.28;;;7.10;99.90;;;;;;5011257;28;20204;-82
2022/12/30 04:42:04;;;;;;;27.40;3.17;;;7.10;99.90;;;;;;4994876;28;20209;-83
2022/12/30 04:44:29;;;;;;;18.58;3.10;;;7.20;99.90;;;;;;4994535;28;20681;-82
2022/12/30 04:46:55;;;;;;;17.65;2.95;;;7.20;99.90;;;;;;4995967;28;20165;-81
2022/12/30 04:49:20;;;;;;;15.57;2.97;;;7.20;99.90;;;;;;5010828;28;20181;-80
2022/12/30 04:51:46;;;;;;;17.02;3.38;;;7.30;99.90;;;;;;5010498;28;20201;-81
2022/12/30 04:54:12;;;;;;;9.85;3.72;;;7.50;99.90;;;;;;5010707;28;20611;-81
2022/12/30 04:56:37;;;;;;;12.73;3.63;;;7.50;99.90;;;;;;4995558;28;20276;-81
2022/12/30 04:59:03;;;;;;;20.83;3.05;;;7.30;99.90;;;;;;5010592;28;20207;-82
2022/12/30 05:01:28;;;;;;;15.38;3.55;;;7.10;99.90;;;;;;4995650;28;20555;-80
2022/12/30 05:03:54;;;;;;;22.95;3.22;;;7.10;99.90;;;;;;4994171;28;20307;-80
2022/12/30 05:06:19;;;;;;;15.35;2.42;;;7.10;99.90;;;;;;4995531;28;20158;-80
2022/12/30 05:08:45;;;;;;;16.30;2.53;;;7.10;99.90;;;;;;4993646;28;20236;-80
2022/12/30 05:11:11;;;;;;;21.25;3.47;;;7.20;99.90;;;;;;4995231;28;20185;-81
2022/12/30 05:13:36;;;;;;;12.05;2.92;;;7.30;99.90;;;;;;4994275;28;20284;-81
2022/12/30 05:16:02;;;;;;;11.52;3.15;;;7.30;99.90;;;;;;4995456;28;20173;-81
2022/12/30 05:18:27;;;;;;;9.45;2.42;;;7.20;99.90;;;;;;4994982;28;20169;-80
2022/12/30 05:20:53;;;;;;;20.67;3.83;;;7.20;99.90;;;;;;4993455;28;20212;-82
2022/12/30 05:26:14;;;;;;;12.40;3.00;;;7.10;99.90;;;;;;4995605;28;20188;-81
2022/12/30 05:28:41;;;;;;;17.80;4.05;;;7.10;99.90;;;;;;4993453;28;20185;-82
2022/12/30 05:31:07;;;;;;;9.40;3.22;;;7.20;99.90;;;;;;5009655;28;20169;-81
2022/12/30 05:33:32;;;;;;;6.60;3.20;;;7.20;99.90;;;;;;4995073;28;20207;-81
2022/12/30 05:35:58;;;;;;;22.90;3.88;;;7.20;99.90;;;;;;5010008;28;20205;-81
2022/12/30 05:38:24;;;;;;;7.88;2.72;;;7.20;99.90;;;;;;4994073;28;20227;-81
2022/12/30 05:40:51;;;;;;;4.80;2.65;;;7.20;99.90;;;;;;4995053;28;20665;-81
2022/12/30 05:43:16;;;;;;;12.48;3.10;;;7.20;99.90;;;;;;4993728;28;20196;-82
2022/12/30 05:45:42;;;;;;;16.60;3.95;;;7.10;99.90;;;;;;4994642;28;20657;-81
2022/12/30 05:48:07;;;;;;;23.38;3.67;;;7.00;99.90;;;;;;4994628;28;20165;-81
2022/12/30 05:50:33;;;;;;;12.20;3.35;;;6.90;99.90;;;;;;4994829;28;20263;-81
2022/12/30 05:52:59;;;;;;;22.67;3.67;;;6.90;99.90;;;;;;4994497;28;20193;-82
2022/12/30 05:55:24;;;;;;;7.78;2.95;;;7.10;99.90;;;;;;4994648;28;20173;-81
2022/12/30 05:57:50;;;;;;;9.23;3.13;;;7.10;99.90;;;;;;5009423;28;20169;-81
2022/12/30 06:00:16;;;;;;;8.88;3.13;;;7.20;99.90;;;;;;4994537;28;20602;-81
2022/12/30 06:02:41;;;;;;;11.38;3.30;;;7.20;99.90;;;;;;4993241;28;20227;-82
2022/12/30 06:05:08;;;;;;;14.30;2.88;;;7.20;99.90;;;;;;5008854;28;20213;-81
2022/12/30 06:07:33;;;;;;;10.50;3.15;;;7.20;99.90;;;;;;4994461;28;20166;-81
2022/12/30 06:09:59;;;;;;;17.58;3.75;;;7.40;99.90;;;;;;4993233;28;20581;-81
2022/12/30 06:12:25;;;;;;;9.85;2.90;;;7.40;99.90;;;;;;4994280;28;20599;-82
2022/12/30 06:14:50;;;;;;;9.60;3.22;;;7.40;99.90;;;;;;4994118;28;20175;-81
2022/12/30 06:17:16;;;;;;;8.80;3.22;;;7.40;99.90;;;;;;4992665;28;20267;-80
2022/12/30 06:19:41;;;;;;;11.40;3.13;;;7.50;99.90;;;;;;5009262;28;20174;-81
2022/12/30 06:22:07;;;;;;;15.25;3.00;;;7.60;99.90;;;;;;4994202;28;20197;-81
2022/12/30 06:24:33;;;;;;;7.32;2.67;;;7.70;99.90;;;;;;4992789;28;20220;-81
2022/12/30 06:26:58;;;;;;;11.23;2.28;;;7.70;99.90;;;;;;4994092;28;20176;-81
2022/12/30 06:29:24;;;;;;;4.78;2.33;;;7.90;99.90;;;;;;4992725;28;20188;-81
2022/12/30 06:31:49;;;;;;;10.13;2.15;;;7.80;99.90;;;;;;4992561;28;20177;-81
2022/12/30 06:34:15;;;;;;;16.02;3.10;;;7.90;99.90;;;;;;4993652;28;20272;-81
2022/12/30 06:36:41;;;;;;;9.23;2.78;;;7.80;99.90;;;;;;4993861;28;20157;-81
2022/12/30 06:39:06;;;;;;;19.52;3.25;;;7.70;99.90;;;;;;4992816;28;20170;-81
2022/12/30 06:41:32;;;;;;;8.57;2.15;;;7.70;99.90;;;;;;4993948;28;20181;-82
2022/12/30 06:43:57;;;;;;;11.00;2.35;;;7.70;99.90;;;;;;4993651;28;20216;-81
2022/12/30 06:46:23;;;;;;;6.20;2.72;;;7.60;99.90;;;;;;4993570;28;20169;-81
2022/12/30 06:48:48;;;;;;;5.03;1.70;;;7.70;99.90;;;;;;4993341;28;20170;-80
2022/12/30 06:51:14;;;;;;;7.65;2.22;;;7.80;99.90;;;;;;4993585;28;20172;-81
2022/12/30 06:53:40;;;;;;;13.75;2.33;;;8.00;99.90;;;;;;5008516;28;20193;-80
2022/12/30 06:56:06;;;;;;;8.77;2.65;;;8.00;99.90;;;;;;4993480;28;20177;-81
2022/12/30 06:58:32;;;;;;;4.03;1.77;;;8.00;99.90;;;;;;4992359;28;20175;-81
2022/12/30 07:00:58;;;;;;;5.85;2.20;;;7.90;99.90;;;;;;4992244;28;20256;-81
2022/12/30 07:03:23;;;;;;;6.35;1.98;;;8.10;99.90;;;;;;4992919;28;20704;-82
2022/12/30 07:05:49;;;;;;;5.78;1.80;;;8.10;99.90;;;;;;4992786;28;20232;-81
2022/12/30 07:08:15;;;;;;;6.10;1.92;;;8.10;99.90;;;;;;4993316;28;20200;-82
2022/12/30 07:10:40;;;;;;;4.53;1.63;;;8.00;99.90;;;;;;4993274;28;20271;-81
2022/12/30 07:13:06;;;;;;;12.73;2.25;;;8.00;99.90;;;;;;5008244;28;20200;-80
2022/12/30 07:15:32;;;;;;;6.68;1.65;;;7.90;99.90;;;;;;4993340;28;20173;-81
2022/12/30 07:17:57;;;;;;;3.42;1.77;;;7.90;99.90;;;;;;4992183;28;20693;-81
2022/12/30 07:20:23;;;;;;;3.60;2.13;;;7.90;99.90;;;;;;5008134;28;20271;-80
2022/12/30 07:22:49;;;;;;;5.65;1.92;;;8.00;99.90;;;;;;4991917;28;20185;-81
2022/12/30 07:25:14;;;;;;;3.13;1.90;;;7.90;99.90;;;;;;4991689;28;20627;-82
2022/12/30 07:27:40;;;;;;;4.22;1.60;;;7.90;99.90;;;;;;5008134;28;20169;-81
2022/12/30 07:30:06;;;;;;;5.68;2.25;;;7.70;99.90;;;;;;5007824;28;20658;-81
2022/12/30 07:32:32;;;;;;;9.68;2.40;;;7.80;99.90;;;;;;5008203;28;20193;-81
2022/12/30 07:34:57;;;;;;;8.45;1.95;;;7.80;99.90;;;;;;4991588;28;20312;-82
2022/12/30 07:37:23;;;;;;;8.10;2.10;;;7.90;99.90;;;;;;5008274;28;20173;-82
2022/12/30 07:39:49;;;;;;;2.08;1.15;;;7.90;99.90;;;;;;4993228;28;20177;-82
2022/12/30 07:42:15;;;;;;;11.05;1.45;;;7.90;99.90;;;;;;4993179;28;20650;-81
2022/12/30 07:44:41;;;;;;;4.53;1.50;;;8.00;99.90;;;;;;4991725;28;20295;-85
2022/12/30 07:47:06;;;;;;;4.15;1.77;;;8.10;99.90;;;;;;5008065;28;20174;-83
2022/12/30 07:49:32;;;;;;;1.75;1.40;;;8.10;99.90;;;;;;4991865;28;20180;-85
2022/12/30 07:51:58;;;;;;;5.43;1.55;;;8.10;99.90;;;;;;4991851;28;20170;-82
2022/12/30 07:54:23;;;;;;;6.90;2.67;;;7.90;99.90;;;;;;4992991;28;20189;-81
2022/12/30 07:56:49;;;;;;;3.53;1.77;;;8.00;99.90;;;;;;4992769;28;20166;-81
2022/12/30 07:59:14;;;;;;;15.27;2.33;;;8.00;99.90;;;;;;4991646;28;20177;-82
2022/12/30 08:01:40;;;;;;;5.43;2.22;;;8.00;99.90;;;;;;4992562;28;20176;-81
2022/12/30 08:04:06;;;;;;;6.50;1.88;;;8.10;99.90;;;;;;4993064;28;20224;-82
2022/12/30 08:06:31;;;;;;;12.23;2.47;;;8.00;99.90;;;;;;4992873;28;20177;-81
2022/12/30 08:08:57;;;;;;;6.45;2.00;;;8.10;99.90;;;;;;5007923;28;20231;-81
2022/12/30 08:11:23;;;;;;;3.42;2.13;;;8.10;99.90;;;;;;5007943;28;20239;-81
2022/12/30 08:13:48;;;;;;;4.78;1.48;;;8.20;99.90;;;;;;4992721;28;20189;-82
2022/12/30 08:16:16;;;;;;;5.80;1.80;;;8.20;99.90;;;;;;4991764;28;20517;-81
2022/12/30 08:18:42;;;;;;;4.20;1.75;;;8.10;99.90;;;;;;5007767;28;20173;-80
2022/12/30 08:21:11;;;;;;;4.78;1.75;;;8.00;99.90;;;;;;4992611;28;20173;-80
2022/12/30 08:23:37;;;;;;;6.47;1.80;;;8.20;99.90;;;;;;4991042;28;20673;-79
2022/12/30 08:26:08;;;;;;;5.40;1.50;;;8.20;99.90;;;;;;4991477;28;20755;-81
2022/12/30 08:28:34;;;;;;;7.53;1.67;;;8.20;99.90;;;;;;4994776;28;20344;-80
2022/12/30 08:31:08;;;;;;;4.55;2.13;;;8.20;99.90;;;;;;4996148;28;20259;-80
2022/12/30 08:33:34;;;;;;;5.95;1.92;;;8.30;99.90;;;;;;5011060;28;20351;-80
2022/12/30 08:36:05;;;;;;;4.95;1.40;;;8.20;99.90;;;;;;4994315;28;20173;-84
2022/12/30 08:38:33;;;;;;;10.43;1.70;;;8.20;99.90;;;;;;5011268;28;20177;-82
2022/12/30 08:41:12;;;;;;;2.22;1.10;;;8.30;99.90;;;;;;4996848;28;20251;-84
2022/12/30 08:43:38;;;;;;;5.55;1.60;;;8.40;99.90;;;;;;4996210;28;20189;-81
2022/12/30 08:46:03;;;;;;;8.50;1.67;;;8.50;99.90;;;;;;4995155;28;20176;-83
2022/12/30 08:48:30;;;;;;;8.45;1.77;;;8.50;99.90;;;;;;4995720;28;20180;-80
2022/12/30 08:50:56;;;;;;;5.22;1.80;;;8.60;99.90;;;;;;4996065;28;20209;-87
2022/12/30 08:53:22;;;;;;;6.20;1.50;;;8.70;99.90;;;;;;4994568;28;20217;-81
2022/12/30 08:55:47;;;;;;;12.75;2.25;;;8.70;99.90;;;;;;4995559;28;20178;-84
2022/12/30 08:58:13;;;;;;;6.32;1.48;;;8.70;99.90;;;;;;4995511;28;20161;-82
2022/12/30 09:00:39;;;;;;;7.20;1.63;;;8.80;99.90;;;;;;5011229;28;20544;-84
2022/12/30 09:03:05;;;;;;;15.38;2.03;;;8.70;99.90;;;;;;4995479;28;20188;-80
2022/12/30 09:05:34;;;;;;;5.80;1.73;;;8.70;99.90;;;;;;4995598;28;20280;-82
2022/12/30 09:08:00;;;;;;;3.38;1.40;;;8.80;99.90;;;;;;5011190;28;20223;-85
2022/12/30 09:10:27;;;;;;;2.28;1.10;;;8.90;99.90;;;;;;4996042;28;20170;-83
2022/12/30 09:12:53;;;;;;;2.00;1.20;;;8.90;99.90;;;;;;5012211;28;20243;-85
2022/12/30 09:15:18;;;;;;;3.00;1.05;;;9.00;99.90;;;;;;5011555;28;20177;-80
2022/12/30 09:17:44;;;;;;;8.38;1.50;;;9.00;99.90;;;;;;4994243;28;20165;-83
2022/12/30 09:20:10;;;;;;;5.28;1.05;;;9.10;99.90;;;;;;4997055;28;20169;-80
2022/12/30 09:22:36;;;;;;;3.55;1.40;;;9.00;99.90;;;;;;4997926;28;20200;-80
2022/12/30 09:25:01;;;;;;;4.07;1.20;;;9.10;99.90;;;;;;4995845;28;20205;-83
2022/12/30 09:27:27;;;;;;;6.53;1.35;;;9.10;99.90;;;;;;4995259;28;20177;-84
2022/12/30 09:29:53;;;;;;;8.60;1.20;;;9.30;99.90;;;;;;5011170;28;20196;-83
2022/12/30 09:32:19;;;;;;;12.25;1.25;;;9.30;99.90;;;;;;4995657;28;20177;-84
2022/12/30 09:34:44;;;;;;;4.80;1.08;;;9.40;99.90;;;;;;4995868;28;20166;-81
2022/12/30 09:37:10;;;;;;;4.88;1.25;;;9.30;99.90;;;;;;4995309;28;20183;-81
2022/12/30 09:39:36;;;;;;;12.48;1.65;;;9.20;99.90;;;;;;4995445;28;20590;-81
2022/12/30 09:45:06;;;;;;;2.92;1.10;;;9.10;99.90;;;;;;4995649;28;20223;-81
2022/12/30 09:47:35;;;;;;;11.60;1.15;;;9.10;99.90;;;;;;4995784;28;20523;-83
2022/12/30 09:50:11;;;;;;;7.30;1.60;;;9.10;99.90;;;;;;4995840;28;20169;-84
2022/12/30 09:52:53;;;;;;;3.90;1.00;;;9.30;99.90;;;;;;4995679;28;20181;-86
2022/12/30 09:55:27;;;;;;;8.32;1.80;;;9.40;99.90;;;;;;5010485;28;20173;-90
2022/12/30 09:58:02;;;;;;;6.22;1.48;;;9.40;99.90;;;;;;4997301;28;20223;-84
2022/12/30 10:00:33;;;;;;;5.28;1.13;;;9.30;99.90;;;;;;4995376;28;20177;-87
2022/12/30 10:03:25;;;;;;;5.47;1.77;;;9.40;99.90;;;;;;4998185;28;20188;-88
2022/12/30 10:06:24;;;;;;;8.38;1.88;;;9.30;99.90;;;;;;4995595;28;20204;-86
2022/12/30 10:09:06;;;;;;;2.85;1.17;;;9.30;99.90;;;;;;5011445;28;20268;-80
2022/12/30 10:11:47;;;;;;;7.63;1.33;;;9.40;99.90;;;;;;4994353;28;20705;-85
2022/12/30 10:14:27;;;;;;;5.28;1.67;;;9.40;99.90;;;;;;4994994;28;20185;-89
2022/12/30 10:17:01;;;;;;;10.38;2.28;;;9.40;99.90;;;;;;4995371;28;20627;-84
2022/12/30 10:19:33;;;;;;;3.80;1.58;;;9.50;99.90;;;;;;5010441;28;20208;-87
2022/12/30 10:22:37;;;;;;;2.95;1.52;;;9.60;99.90;;;;;;5010781;28;20208;-86
2022/12/30 10:25:18;;;;;;;4.05;1.73;;;9.60;99.90;;;;;;4994699;28;20211;-81
2022/12/30 10:27:54;;;;;;;4.03;1.90;;;9.80;99.90;;;;;;4994532;28;20164;-80
2022/12/30 10:30:31;;;;;;;6.50;1.27;;;9.80;99.90;;;;;;4985119;28;20208;-82
2022/12/30 10:33:02;;;;;;;10.43;1.70;;;9.80;99.90;;;;;;4975752;28;20192;-87
2022/12/30 10:35:32;;;;;;;5.15;1.45;;;9.90;99.90;;;;;;4976773;28;20619;-88
2022/12/30 10:38:09;;;;;;;4.00;1.30;;;9.90;99.90;;;;;;4975309;28;20630;-88
2022/12/30 10:40:40;;;;;;;4.88;1.33;;;10.00;99.90;;;;;;4990644;28;20237;-87
2022/12/30 10:43:27;;;;;;;6.05;1.58;;;10.00;99.90;;;;;;4976421;28;20651;-87
2022/12/30 10:46:18;;;;;;;10.93;1.35;;;10.00;99.90;;;;;;4975473;28;20240;-85
2022/12/30 10:48:55;;;;;;;4.85;1.50;;;10.00;99.90;;;;;;4974912;28;20605;-86
2022/12/30 10:51:21;;;;;;;4.57;1.45;;;10.20;99.90;;;;;;4975959;28;20200;-85
2022/12/30 10:53:50;;;;;;;4.63;1.58;;;10.20;99.90;;;;;;4975681;28;20193;-81
2022/12/30 10:56:26;;;;;;;7.18;1.35;;;10.20;99.90;;;;;;4975795;28;20206;-83
2022/12/30 10:58:52;;;;;;;7.68;1.40;;;10.20;99.90;;;;;;4975842;28;20179;-83
2022/12/30 11:01:24;;;;;;;2.58;1.25;;;10.30;99.90;;;;;;4976526;28;20508;-91
2022/12/30 11:03:56;;;;;;;4.60;1.90;;;10.20;99.90;;;;;;4975560;28;20200;-89
2022/12/30 11:06:27;;;;;;;1.88;0.88;;;10.20;99.90;;;;;;4973774;28;20166;-84
2022/12/30 11:09:14;;;;;;;3.25;1.17;;;10.20;99.90;;;;;;4976398;28;20161;-87
2022/12/30 11:14:44;;;;;;;1.13;0.70;;;10.10;99.90;;;;;;4975914;28;20243;-83
2022/12/30 11:17:25;;;;;;;4.40;1.10;;;10.00;99.90;;;;;;4990071;28;20544;-86
2022/12/30 11:19:53;;;;;;;8.13;1.50;;;10.00;99.90;;;;;;4989873;28;20224;-90
2022/12/30 11:22:21;;;;;;;5.65;1.73;;;10.00;99.90;;;;;;4990758;28;20166;-86
2022/12/30 11:24:56;;;;;;;7.30;1.35;;;9.80;99.90;;;;;;4976695;28;20556;-86
2022/12/30 11:27:44;;;;;;;5.35;1.52;;;9.80;99.90;;;;;;4975854;28;20176;-88
2022/12/30 11:30:36;;;;;;;6.93;1.00;;;9.80;99.90;;;;;;4980852;28;20181;-87
2022/12/30 11:33:05;;;;;;;5.22;1.52;;;9.60;99.90;;;;;;4996284;28;20189;-86
2022/12/30 11:35:37;;;;;;;5.18;1.05;;;9.50;99.90;;;;;;4976463;28;20252;-82
2022/12/30 11:38:24;;;;;;;4.57;1.77;;;9.60;99.90;;;;;;4975682;28;20176;-82
2022/12/30 11:40:50;;;;;;;5.38;1.10;;;9.50;99.90;;;;;;4973558;28;20181;-86
2022/12/30 11:43:18;;;;;;;1.60;1.00;;;9.50;99.90;;;;;;4974733;28;20201;-84
2022/12/30 11:45:51;;;;;;;3.58;1.25;;;9.70;99.90;;;;;;4974532;28;20202;-85
2022/12/30 11:48:27;;;;;;;1.95;0.85;;;9.70;99.90;;;;;;4974857;28;20174;-85
2022/12/30 11:50:54;;;;;;;4.32;1.08;;;9.60;99.90;;;;;;4974902;28;20170;-83
2022/12/30 11:53:24;;;;;;;4.78;1.17;;;9.60;99.90;;;;;;4973570;28;20556;-84
2022/12/30 11:55:51;;;;;;;1.85;0.65;;;9.50;99.90;;;;;;4974701;28;20220;-79
2022/12/30 11:58:18;;;;;;;1.05;0.93;;;9.40;99.90;;;;;;4972641;28;20177;-86
2022/12/30 12:00:46;;;;;;;4.90;1.17;;;9.40;99.90;;;;;;4974052;28;20174;-87
2022/12/30 12:03:17;;;;;;;2.20;1.05;;;9.40;99.90;;;;;;4977226;28;20181;-86
2022/12/30 12:05:45;;;;;;;3.20;0.90;;;9.50;99.90;;;;;;4977771;28;20629;-86
2022/12/30 12:08:20;;;;;;;11.45;1.10;;;9.40;99.90;;;;;;4978165;28;20219;-81
2022/12/30 12:10:58;;;;;;;2.50;1.17;;;9.40;99.90;;;;;;4977756;28;20288;-86
2022/12/30 12:13:28;;;;;;;2.20;1.10;;;9.40;99.90;;;;;;4977607;28;20620;-82
2022/12/30 12:15:57;;;;;;;3.45;0.98;;;9.50;99.90;;;;;;4977048;28;20745;-84
2022/12/30 12:18:28;;;;;;;5.35;1.25;;;9.60;99.90;;;;;;4977692;28;20178;-88
2022/12/30 12:21:13;;;;;;;2.30;1.30;;;9.60;99.90;;;;;;4977665;28;20242;-83
2022/12/30 12:24:05;;;;;;;2.55;1.05;;;9.50;99.90;;;;;;4975738;28;20561;-83
2022/12/30 12:26:44;;;;;;;11.45;1.35;;;9.60;99.90;;;;;;4977858;28;20182;-86
2022/12/30 12:29:14;;;;;;;2.00;0.80;;;9.60;99.90;;;;;;4991891;28;20196;-80
2022/12/30 12:32:10;;;;;;;2.40;0.90;;;9.60;99.90;;;;;;4996729;28;20196;-84
2022/12/30 12:34:42;;;;;;;2.42;1.42;;;9.60;99.90;;;;;;4996847;28;20185;-83
2022/12/30 12:37:35;;;;;;;5.30;1.13;;;9.50;99.90;;;;;;5008946;28;20181;-82
2022/12/30 12:40:07;;;;;;;0.73;0.65;;;9.60;99.90;;;;;;4981091;28;20204;-85
2022/12/30 12:42:50;;;;;;;4.70;0.98;;;9.60;99.90;;;;;;4997181;28;20204;-84
2022/12/30 12:45:41;;;;;;;1.80;1.02;;;9.60;99.90;;;;;;4995986;28;20209;-84
2022/12/30 12:48:25;;;;;;;1.60;1.00;;;9.50;99.90;;;;;;5012695;28;20224;-83
2022/12/30 12:50:59;;;;;;;3.92;1.20;;;9.50;99.90;;;;;;5012991;28;20215;-83
2022/12/30 12:54:02;;;;;;;4.03;1.08;;;9.50;99.90;;;;;;4990302;28;20243;-84
2022/12/30 12:56:44;;;;;;;2.13;0.70;;;9.60;99.90;;;;;;5010879;28;20239;-85
2022/12/30 12:59:24;;;;;;;1.45;1.00;;;9.60;99.90;;;;;;4995833;28;20856;-83
2022/12/30 13:01:57;;;;;;;1.55;0.95;;;9.50;99.90;;;;;;4996239;28;20252;-85
2022/12/30 13:04:34;;;;;;;2.72;0.73;;;9.60;99.90;;;;;;4994814;28;20213;-86
2022/12/30 13:07:21;;;;;;;3.33;1.02;;;9.70;99.90;;;;;;4996557;28;20923;-81
2022/12/30 13:10:21;;;;;;;3.42;1.00;;;9.70;99.90;;;;;;5009008;28;20184;-83
2022/12/30 13:12:56;;;;;;;1.05;0.77;;;9.70;99.90;;;;;;4994528;28;20197;-82
2022/12/30 13:15:27;;;;;;;0.60;0.60;;;9.80;99.90;;;;;;4993620;28;20177;-81
2022/12/30 13:17:58;;;;;;;0.68;0.68;;;9.90;99.90;;;;;;4986352;28;20177;-85
2022/12/30 13:20:29;;;;;;;1.40;0.90;;;10.00;99.90;;;;;;4993566;28;20261;-82
2022/12/30 13:23:02;;;;;;;0.80;0.65;;;9.90;99.90;;;;;;5011199;28;20566;-81
2022/12/30 13:25:33;;;;;;;0.68;0.52;;;9.90;99.90;;;;;;4976275;28;20209;-83
2022/12/30 13:28:01;;;;;;;0.55;0.50;;;9.90;99.90;;;;;;4991821;28;20177;-84
2022/12/30 13:30:43;;;;;;;0.75;0.60;;;10.00;99.90;;;;;;4991798;28;20202;-85
2022/12/30 13:33:22;;;;;;;2.15;1.42;;;10.10;99.90;;;;;;4992166;28;20256;-82
2022/12/30 13:36:13;;;;;;;0.45;0.40;;;10.10;99.90;;;;;;4975982;28;20557;-81
2022/12/30 13:38:58;;;;;;;1.55;0.63;;;10.20;99.90;;;;;;4991837;28;20587;-82
2022/12/30 13:41:45;;;;;;;6.20;0.60;;;10.20;99.90;;;;;;4976114;28;20189;-82
2022/12/30 13:44:19;;;;;;;0.88;0.63;;;10.30;99.90;;;;;;4976991;28;20209;-85
2022/12/30 13:46:50;;;;;;;1.10;0.80;;;10.30;99.90;;;;;;4976793;28;20178;-85
2022/12/30 13:49:22;;;;;;;2.53;0.40;;;10.40;99.90;;;;;;4991703;28;20633;-83
2022/12/30 13:52:06;;;;;;;0.50;0.50;;;10.40;99.90;;;;;;4976761;28;20190;-81
2022/12/30 13:54:33;;;;;;;0.47;0.47;;;10.50;99.90;;;;;;4977175;28;20253;-82
2022/12/30 13:57:01;;;;;;;0.32;0.32;;;10.40;99.90;;;;;;4992850;28;20182;-84
2022/12/30 13:59:38;;;;;;;0.50;0.45;;;10.40;99.90;;;;;;4978231;28;20200;-88
2022/12/30 14:02:19;;;;;;;0.73;0.50;;;10.40;99.90;;;;;;4977409;28;20276;-85
2022/12/30 14:04:47;;;;;;;0.30;0.30;;;10.40;99.90;;;;;;4976400;28;20221;-86
2022/12/30 14:07:38;;;;;;;0.43;0.40;;;10.40;99.90;;;;;;4975698;28;20220;-83